sensor_id;sensor_type;location;lat;lon;timestamp;pressure;altitude;pressure_sealevel;temperature;humidity
70338;BME280;57757;53.198;19.646;2023-05-27T00:02:10;101175.66;;;9.84;40.50
70338;BME280;57757;53.198;19.646;2023-05-27T00:04:40;101179.48;;;9.81;40.60
70338;BME280;57757;53.198;19.646;2023-05-27T00:07:09;101181.23;;;9.80;40.76
70338;BME280;57757;53.198;19.646;2023-05-27T00:09:36;101181.06;;;9.78;40.91
70338;BME280;57757;53.198;19.646;2023-05-27T00:12:05;101184.02;;;9.78;40.97
70338;BME280;57757;53.198;19.646;2023-05-27T00:14:33;101186.30;;;9.77;40.95
70338;BME280;57757;53.198;19.646;2023-05-27T00:17:01;101185.08;;;9.75;41.04
70338;BME280;57757;53.198;19.646;2023-05-27T00:19:31;101183.70;;;9.73;41.12
70338;BME280;57757;53.198;19.646;2023-05-27T00:21:58;101181.96;;;9.70;41.05
70338;BME280;57757;53.198;19.646;2023-05-27T00:24:28;101179.38;;;9.68;41.18
70338;BME280;57757;53.198;19.646;2023-05-27T00:26:58;101179.73;;;9.66;41.36
70338;BME280;57757;53.198;19.646;2023-05-27T00:29:26;101176.96;;;9.64;41.34
70338;BME280;57757;53.198;19.646;2023-05-27T00:31:54;101181.31;;;9.62;41.40
70338;BME280;57757;53.198;19.646;2023-05-27T00:34:23;101182.52;;;9.59;41.48
70338;BME280;57757;53.198;19.646;2023-05-27T00:36:54;101183.77;;;9.57;41.78
70338;BME280;57757;53.198;19.646;2023-05-27T00:39:25;101183.41;;;9.56;41.81
70338;BME280;57757;53.198;19.646;2023-05-27T00:42:03;101182.21;;;9.53;41.87
70338;BME280;57757;53.198;19.646;2023-05-27T00:44:32;101184.99;;;9.51;41.88
70338;BME280;57757;53.198;19.646;2023-05-27T00:47:01;101188.48;;;9.49;42.00
70338;BME280;57757;53.198;19.646;2023-05-27T00:49:28;101190.91;;;9.47;42.25
70338;BME280;57757;53.198;19.646;2023-05-27T00:51:56;101193.87;;;9.43;42.22
70338;BME280;57757;53.198;19.646;2023-05-27T00:54:24;101197.53;;;9.42;42.50
70338;BME280;57757;53.198;19.646;2023-05-27T00:56:51;101204.81;;;9.40;42.67
70338;BME280;57757;53.198;19.646;2023-05-27T00:59:19;101205.70;;;9.37;42.83
70338;BME280;57757;53.198;19.646;2023-05-27T01:01:47;101209.19;;;9.33;42.84
70338;BME280;57757;53.198;19.646;2023-05-27T01:04:17;101210.23;;;9.29;42.90
70338;BME280;57757;53.198;19.646;2023-05-27T01:06:54;101214.05;;;9.25;42.98
70338;BME280;57757;53.198;19.646;2023-05-27T01:14:57;101227.77;;;9.13;43.52
70338;BME280;57757;53.198;19.646;2023-05-27T01:17:27;101230.55;;;9.10;43.52
70338;BME280;57757;53.198;19.646;2023-05-27T01:19:55;101231.77;;;9.08;43.73
70338;BME280;57757;53.198;19.646;2023-05-27T01:22:29;101233.85;;;9.05;43.81
70338;BME280;57757;53.198;19.646;2023-05-27T01:24:56;101235.08;;;9.03;43.76
70338;BME280;57757;53.198;19.646;2023-05-27T01:27:24;101232.64;;;9.00;43.81
70338;BME280;57757;53.198;19.646;2023-05-27T01:29:52;101231.77;;;8.97;43.98
70338;BME280;57757;53.198;19.646;2023-05-27T01:35:29;101231.42;;;8.91;44.16
70338;BME280;57757;53.198;19.646;2023-05-27T01:38:01;101238.38;;;8.85;44.27
70338;BME280;57757;53.198;19.646;2023-05-27T01:40:33;101234.55;;;8.81;44.26
70338;BME280;57757;53.198;19.646;2023-05-27T01:43:01;101233.16;;;8.77;44.45
70338;BME280;57757;53.198;19.646;2023-05-27T01:45:29;101232.11;;;8.75;44.44
70338;BME280;57757;53.198;19.646;2023-05-27T01:47:57;101229.70;;;8.73;44.51
70338;BME280;57757;53.198;19.646;2023-05-27T01:50:26;101224.84;;;8.70;44.54
70338;BME280;57757;53.198;19.646;2023-05-27T01:52:54;101227.77;;;8.67;44.60
70338;BME280;57757;53.198;19.646;2023-05-27T01:55:22;101232.82;;;8.66;44.67
70338;BME280;57757;53.198;19.646;2023-05-27T01:57:49;101236.11;;;8.65;44.77
70338;BME280;57757;53.198;19.646;2023-05-27T02:00:18;101234.36;;;8.65;44.73
70338;BME280;57757;53.198;19.646;2023-05-27T02:02:45;101236.09;;;8.64;44.86
70338;BME280;57757;53.198;19.646;2023-05-27T02:05:13;101233.16;;;8.65;45.01
70338;BME280;57757;53.198;19.646;2023-05-27T02:07:41;101235.94;;;8.66;45.08
70338;BME280;57757;53.198;19.646;2023-05-27T02:10:10;101233.16;;;8.67;45.34
70338;BME280;57757;53.198;19.646;2023-05-27T02:12:37;101235.59;;;8.66;45.29
70338;BME280;57757;53.198;19.646;2023-05-27T02:15:05;101238.02;;;8.65;45.36
70338;BME280;57757;53.198;19.646;2023-05-27T02:17:33;101235.39;;;8.64;45.40
70338;BME280;57757;53.198;19.646;2023-05-27T02:20:00;101238.00;;;8.62;45.54
70338;BME280;57757;53.198;19.646;2023-05-27T02:22:28;101236.44;;;8.60;45.64
70338;BME280;57757;53.198;19.646;2023-05-27T02:24:56;101243.70;;;8.59;45.69
70338;BME280;57757;53.198;19.646;2023-05-27T02:27:23;101244.41;;;8.57;45.76
70338;BME280;57757;53.198;19.646;2023-05-27T02:29:51;101242.49;;;8.56;45.90
70338;BME280;57757;53.198;19.646;2023-05-27T02:32:18;101247.89;;;8.54;45.93
70338;BME280;57757;53.198;19.646;2023-05-27T02:34:46;101242.67;;;8.51;45.95
70338;BME280;57757;53.198;19.646;2023-05-27T02:37:14;101247.88;;;8.49;46.12
70338;BME280;57757;53.198;19.646;2023-05-27T02:39:41;101250.13;;;8.49;46.28
70338;BME280;57757;53.198;19.646;2023-05-27T02:42:09;101249.07;;;8.48;46.22
70338;BME280;57757;53.198;19.646;2023-05-27T02:44:37;101251.49;;;8.47;46.41
70338;BME280;57757;53.198;19.646;2023-05-27T02:47:04;101250.10;;;8.47;46.34
70338;BME280;57757;53.198;19.646;2023-05-27T02:49:32;101247.35;;;8.46;46.44
70338;BME280;57757;53.198;19.646;2023-05-27T02:52:00;101250.12;;;8.46;46.51
70338;BME280;57757;53.198;19.646;2023-05-27T02:54:27;101246.27;;;8.44;46.52
70338;BME280;57757;53.198;19.646;2023-05-27T02:56:55;101250.27;;;8.44;46.56
70338;BME280;57757;53.198;19.646;2023-05-27T02:59:22;101250.11;;;8.44;46.67
70338;BME280;57757;53.198;19.646;2023-05-27T03:01:50;101249.41;;;8.45;46.67
70338;BME280;57757;53.198;19.646;2023-05-27T03:04:18;101250.63;;;8.45;46.72
70338;BME280;57757;53.198;19.646;2023-05-27T03:06:45;101259.82;;;8.46;46.81
70338;BME280;57757;53.198;19.646;2023-05-27T03:09:13;101261.05;;;8.46;46.93
70338;BME280;57757;53.198;19.646;2023-05-27T03:11:41;101265.20;;;8.47;46.92
70338;BME280;57757;53.198;19.646;2023-05-27T03:14:09;101266.58;;;8.48;47.00
70338;BME280;57757;53.198;19.646;2023-05-27T03:16:36;101268.65;;;8.48;47.01
70338;BME280;57757;53.198;19.646;2023-05-27T03:19:04;101271.09;;;8.48;47.04
70338;BME280;57757;53.198;19.646;2023-05-27T03:21:33;101269.02;;;8.49;47.17
70338;BME280;57757;53.198;19.646;2023-05-27T03:24:00;101269.71;;;8.51;47.20
70338;BME280;57757;53.198;19.646;2023-05-27T03:26:28;101273.52;;;8.53;47.28
70338;BME280;57757;53.198;19.646;2023-05-27T03:28:56;101272.14;;;8.56;47.21
70338;BME280;57757;53.198;19.646;2023-05-27T03:31:23;101272.68;;;8.57;47.26
70338;BME280;57757;53.198;19.646;2023-05-27T03:33:51;101269.03;;;8.59;47.25
70338;BME280;57757;53.198;19.646;2023-05-27T03:36:18;101266.62;;;8.61;47.43
70338;BME280;57757;53.198;19.646;2023-05-27T03:38:46;101271.46;;;8.64;47.54
70338;BME280;57757;53.198;19.646;2023-05-27T03:41:14;101270.95;;;8.67;47.57
70338;BME280;57757;53.198;19.646;2023-05-27T03:43:41;101274.94;;;8.70;47.70
70338;BME280;57757;53.198;19.646;2023-05-27T03:46:09;101279.98;;;8.73;47.71
70338;BME280;57757;53.198;19.646;2023-05-27T03:48:37;101279.63;;;8.75;47.74
70338;BME280;57757;53.198;19.646;2023-05-27T03:51:04;101278.27;;;8.78;47.74
70338;BME280;57757;53.198;19.646;2023-05-27T03:53:32;101283.63;;;8.80;47.88
70338;BME280;57757;53.198;19.646;2023-05-27T03:56:00;101286.06;;;8.83;48.03
70338;BME280;57757;53.198;19.646;2023-05-27T03:58:28;101289.38;;;8.86;48.06
70338;BME280;57757;53.198;19.646;2023-05-27T04:00:56;101293.18;;;8.89;47.97
70338;BME280;57757;53.198;19.646;2023-05-27T04:03:23;101295.27;;;8.93;48.10
70338;BME280;57757;53.198;19.646;2023-05-27T04:05:54;101299.42;;;8.96;48.24
70338;BME280;57757;53.198;19.646;2023-05-27T04:08:25;101298.93;;;9.02;48.23
70338;BME280;57757;53.198;19.646;2023-05-27T04:10:56;101304.82;;;9.09;48.34
70338;BME280;57757;53.198;19.646;2023-05-27T04:13:23;101308.83;;;9.16;48.34
70338;BME280;57757;53.198;19.646;2023-05-27T04:15:51;101314.02;;;9.22;48.42
70338;BME280;57757;53.198;19.646;2023-05-27T04:18:19;101316.11;;;9.28;48.24
70338;BME280;57757;53.198;19.646;2023-05-27T04:20:48;101312.98;;;9.34;48.51
70338;BME280;57757;53.198;19.646;2023-05-27T04:23:17;101313.67;;;9.41;48.57
70338;BME280;57757;53.198;19.646;2023-05-27T04:25:45;101316.96;;;9.48;48.68
70338;BME280;57757;53.198;19.646;2023-05-27T04:28:13;101315.39;;;9.55;48.67
70338;BME280;57757;53.198;19.646;2023-05-27T04:30:42;101314.86;;;9.62;48.66
70338;BME280;57757;53.198;19.646;2023-05-27T04:33:10;101320.05;;;9.70;48.90
70338;BME280;57757;53.198;19.646;2023-05-27T04:35:38;101321.09;;;9.76;48.75
70338;BME280;57757;53.198;19.646;2023-05-27T04:38:10;101320.89;;;9.84;48.90
70338;BME280;57757;53.198;19.646;2023-05-27T04:40:37;101318.63;;;9.90;48.94
70338;BME280;57757;53.198;19.646;2023-05-27T04:43:05;101320.34;;;9.95;48.94
70338;BME280;57757;53.198;19.646;2023-05-27T04:45:32;101320.15;;;10.03;49.01
70338;BME280;57757;53.198;19.646;2023-05-27T04:48:02;101316.99;;;10.14;49.14
70338;BME280;57757;53.198;19.646;2023-05-27T04:50:30;101316.98;;;10.23;49.02
70338;BME280;57757;53.198;19.646;2023-05-27T04:52:58;101317.47;;;10.30;49.15
70338;BME280;57757;53.198;19.646;2023-05-27T04:55:29;101313.45;;;10.37;49.21
70338;BME280;57757;53.198;19.646;2023-05-27T04:57:58;101318.25;;;10.46;49.08
70338;BME280;57757;53.198;19.646;2023-05-27T05:00:25;101317.69;;;10.58;49.25
70338;BME280;57757;53.198;19.646;2023-05-27T05:03:09;101319.69;;;10.70;49.37
70338;BME280;57757;53.198;19.646;2023-05-27T05:05:39;101319.45;;;10.82;49.32
70338;BME280;57757;53.198;19.646;2023-05-27T05:08:08;101319.20;;;10.93;49.17
70338;BME280;57757;53.198;19.646;2023-05-27T05:10:36;101315.30;;;11.03;49.18
70338;BME280;57757;53.198;19.646;2023-05-27T05:13:03;101315.07;;;11.11;49.19
70338;BME280;57757;53.198;19.646;2023-05-27T05:15:31;101317.43;;;11.20;49.16
70338;BME280;57757;53.198;19.646;2023-05-27T05:17:59;101316.14;;;11.30;49.17
70338;BME280;57757;53.198;19.646;2023-05-27T05:20:28;101316.55;;;11.41;49.16
70338;BME280;57757;53.198;19.646;2023-05-27T05:22:56;101315.06;;;11.53;48.88
70338;BME280;57757;53.198;19.646;2023-05-27T05:25:23;101313.39;;;11.63;49.05
70338;BME280;57757;53.198;19.646;2023-05-27T05:27:51;101314.02;;;11.73;48.87
70338;BME280;57757;53.198;19.646;2023-05-27T05:30:19;101319.50;;;11.82;48.86
70338;BME280;57757;53.198;19.646;2023-05-27T05:32:47;101325.65;;;11.93;48.77
70338;BME280;57757;53.198;19.646;2023-05-27T05:35:14;101324.66;;;12.05;48.68
70338;BME280;57757;53.198;19.646;2023-05-27T05:37:42;101326.81;;;12.15;48.44
70338;BME280;57757;53.198;19.646;2023-05-27T05:40:10;101326.14;;;12.27;48.65
70338;BME280;57757;53.198;19.646;2023-05-27T05:42:38;101329.64;;;12.39;48.49
70338;BME280;57757;53.198;19.646;2023-05-27T05:45:06;101334.04;;;12.50;48.34
70338;BME280;57757;53.198;19.646;2023-05-27T05:47:34;101336.84;;;12.63;48.29
70338;BME280;57757;53.198;19.646;2023-05-27T05:50:02;101337.38;;;12.74;48.17
70338;BME280;57757;53.198;19.646;2023-05-27T05:52:29;101338.81;;;12.83;48.12
70338;BME280;57757;53.198;19.646;2023-05-27T05:54:57;101335.71;;;12.92;48.10
70338;BME280;57757;53.198;19.646;2023-05-27T05:57:24;101339.19;;;13.06;47.95
70338;BME280;57757;53.198;19.646;2023-05-27T05:59:52;101335.87;;;13.18;47.95
70338;BME280;57757;53.198;19.646;2023-05-27T06:02:19;101343.15;;;13.32;47.89
70338;BME280;57757;53.198;19.646;2023-05-27T06:04:47;101340.66;;;13.46;47.63
70338;BME280;57757;53.198;19.646;2023-05-27T06:07:15;101343.22;;;13.60;47.67
70338;BME280;57757;53.198;19.646;2023-05-27T06:09:44;101349.59;;;13.74;47.42
70338;BME280;57757;53.198;19.646;2023-05-27T06:12:12;101350.09;;;13.85;47.32
70338;BME280;57757;53.198;19.646;2023-05-27T06:14:39;101349.73;;;13.95;47.18
70338;BME280;57757;53.198;19.646;2023-05-27T06:17:07;101351.67;;;14.03;46.98
70338;BME280;57757;53.198;19.646;2023-05-27T06:19:35;101352.95;;;14.11;46.72
70338;BME280;57757;53.198;19.646;2023-05-27T06:22:02;101346.61;;;14.20;46.81
70338;BME280;57757;53.198;19.646;2023-05-27T06:24:34;101346.92;;;14.31;46.77
70338;BME280;57757;53.198;19.646;2023-05-27T06:27:01;101347.75;;;14.44;46.60
70338;BME280;57757;53.198;19.646;2023-05-27T06:29:29;101350.51;;;14.54;46.45
70338;BME280;57757;53.198;19.646;2023-05-27T06:31:57;101352.20;;;14.64;46.42
70338;BME280;57757;53.198;19.646;2023-05-27T06:34:24;101355.27;;;14.76;46.34
70338;BME280;57757;53.198;19.646;2023-05-27T06:36:53;101351.70;;;14.87;46.30
70338;BME280;57757;53.198;19.646;2023-05-27T06:39:20;101345.69;;;14.98;46.01
70338;BME280;57757;53.198;19.646;2023-05-27T06:41:50;101347.66;;;15.10;46.01
70338;BME280;57757;53.198;19.646;2023-05-27T06:44:18;101353.02;;;15.20;45.86
70338;BME280;57757;53.198;19.646;2023-05-27T06:46:47;101347.20;;;15.29;45.56
70338;BME280;57757;53.198;19.646;2023-05-27T06:49:17;101348.62;;;15.36;45.40
70338;BME280;57757;53.198;19.646;2023-05-27T06:51:44;101346.14;;;15.44;45.48
70338;BME280;57757;53.198;19.646;2023-05-27T06:54:12;101344.49;;;15.54;45.19
70338;BME280;57757;53.198;19.646;2023-05-27T06:56:40;101342.48;;;15.64;45.05
70338;BME280;57757;53.198;19.646;2023-05-27T06:59:07;101343.76;;;15.75;44.84
70338;BME280;57757;53.198;19.646;2023-05-27T07:01:35;101343.12;;;15.87;44.59
70338;BME280;57757;53.198;19.646;2023-05-27T07:04:03;101341.08;;;15.98;44.58
70338;BME280;57757;53.198;19.646;2023-05-27T07:06:31;101339.05;;;16.07;44.28
70338;BME280;57757;53.198;19.646;2023-05-27T07:08:58;101327.61;;;16.14;44.02
70338;BME280;57757;53.198;19.646;2023-05-27T07:11:26;101332.71;;;16.20;43.78
70338;BME280;57757;53.198;19.646;2023-05-27T07:13:54;101329.94;;;16.25;43.56
70338;BME280;57757;53.198;19.646;2023-05-27T07:16:21;101327.07;;;16.33;43.23
70338;BME280;57757;53.198;19.646;2023-05-27T07:18:49;101325.27;;;16.41;43.20
70338;BME280;57757;53.198;19.646;2023-05-27T07:21:16;101325.55;;;16.49;43.07
70338;BME280;57757;53.198;19.646;2023-05-27T07:23:44;101318.58;;;16.59;42.67
70338;BME280;57757;53.198;19.646;2023-05-27T07:26:12;101316.37;;;16.68;42.23
70338;BME280;57757;53.198;19.646;2023-05-27T07:28:40;101325.73;;;16.73;41.76
70338;BME280;57757;53.198;19.646;2023-05-27T07:31:07;101321.60;;;16.76;41.57
70338;BME280;57757;53.198;19.646;2023-05-27T07:33:35;101323.69;;;16.82;41.49
70338;BME280;57757;53.198;19.646;2023-05-27T07:36:02;101320.70;;;16.93;41.40
70338;BME280;57757;53.198;19.646;2023-05-27T07:38:30;101325.08;;;17.05;41.37
70338;BME280;57757;53.198;19.646;2023-05-27T07:40:58;101328.23;;;17.16;40.99
70338;BME280;57757;53.198;19.646;2023-05-27T07:43:25;101319.20;;;17.23;40.72
70338;BME280;57757;53.198;19.646;2023-05-27T07:45:53;101320.35;;;17.31;40.64
70338;BME280;57757;53.198;19.646;2023-05-27T07:48:21;101318.87;;;17.38;40.36
70338;BME280;57757;53.198;19.646;2023-05-27T07:50:48;101310.64;;;17.43;40.09
70338;BME280;57757;53.198;19.646;2023-05-27T07:53:16;101308.17;;;17.48;40.02
70338;BME280;57757;53.198;19.646;2023-05-27T07:55:44;101306.48;;;17.56;39.64
70338;BME280;57757;53.198;19.646;2023-05-27T07:58:12;101312.80;;;17.62;39.63
70338;BME280;57757;53.198;19.646;2023-05-27T08:00:39;101304.02;;;17.72;39.67
70338;BME280;57757;53.198;19.646;2023-05-27T08:03:07;101309.92;;;17.79;39.41
70338;BME280;57757;53.198;19.646;2023-05-27T08:05:35;101308.13;;;17.85;39.28
70338;BME280;57757;53.198;19.646;2023-05-27T08:08:03;101314.37;;;17.93;39.03
70338;BME280;57757;53.198;19.646;2023-05-27T08:10:30;101309.04;;;17.99;38.82
70338;BME280;57757;53.198;19.646;2023-05-27T08:12:58;101303.32;;;18.06;38.55
70338;BME280;57757;53.198;19.646;2023-05-27T08:15:25;101296.05;;;18.12;38.61
70338;BME280;57757;53.198;19.646;2023-05-27T08:17:54;101302.71;;;18.18;38.52
70338;BME280;57757;53.198;19.646;2023-05-27T08:20:22;101304.69;;;18.22;38.34
70338;BME280;57757;53.198;19.646;2023-05-27T08:22:51;101302.13;;;18.29;38.21
70338;BME280;57757;53.198;19.646;2023-05-27T08:25:19;101300.59;;;18.37;38.20
70338;BME280;57757;53.198;19.646;2023-05-27T08:27:52;101311.58;;;18.44;38.00
70338;BME280;57757;53.198;19.646;2023-05-27T08:30:21;101309.20;;;18.51;37.48
70338;BME280;57757;53.198;19.646;2023-05-27T08:32:48;101308.95;;;18.58;37.23
70338;BME280;57757;53.198;19.646;2023-05-27T08:35:20;101307.67;;;18.64;37.24
70338;BME280;57757;53.198;19.646;2023-05-27T08:37:48;101309.96;;;18.68;37.26
70338;BME280;57757;53.198;19.646;2023-05-27T08:40:18;101303.20;;;18.79;37.11
70338;BME280;57757;53.198;19.646;2023-05-27T08:42:47;101300.81;;;18.86;36.98
70338;BME280;57757;53.198;19.646;2023-05-27T08:45:16;101301.26;;;18.92;36.76
70338;BME280;57757;53.198;19.646;2023-05-27T08:47:43;101306.09;;;19.03;36.83
70338;BME280;57757;53.198;19.646;2023-05-27T08:50:12;101308.73;;;19.12;36.61
70338;BME280;57757;53.198;19.646;2023-05-27T08:52:53;101306.39;;;19.22;36.53
70338;BME280;57757;53.198;19.646;2023-05-27T08:55:24;101297.77;;;19.34;36.33
70338;BME280;57757;53.198;19.646;2023-05-27T08:57:57;101299.46;;;19.44;36.10
70338;BME280;57757;53.198;19.646;2023-05-27T09:00:28;101303.26;;;19.59;36.22
70338;BME280;57757;53.198;19.646;2023-05-27T09:02:59;101307.68;;;19.71;36.05
70338;BME280;57757;53.198;19.646;2023-05-27T09:05:28;101306.96;;;19.79;35.88
70338;BME280;57757;53.198;19.646;2023-05-27T09:07:57;101305.82;;;19.81;35.64
70338;BME280;57757;53.198;19.646;2023-05-27T09:10:41;101300.13;;;19.86;35.43
70338;BME280;57757;53.198;19.646;2023-05-27T09:13:10;101299.19;;;19.95;35.52
70338;BME280;57757;53.198;19.646;2023-05-27T09:15:38;101298.12;;;20.02;35.48
70338;BME280;57757;53.198;19.646;2023-05-27T09:18:05;101298.48;;;20.11;35.47
70338;BME280;57757;53.198;19.646;2023-05-27T09:20:33;101296.18;;;20.22;35.24
70338;BME280;57757;53.198;19.646;2023-05-27T09:23:03;101295.40;;;20.32;35.14
70338;BME280;57757;53.198;19.646;2023-05-27T09:25:31;101298.33;;;20.41;35.10
70338;BME280;57757;53.198;19.646;2023-05-27T09:27:59;101296.25;;;20.51;34.99
70338;BME280;57757;53.198;19.646;2023-05-27T09:30:28;101288.52;;;20.66;34.80
70338;BME280;57757;53.198;19.646;2023-05-27T09:33:02;101287.02;;;20.75;34.50
70338;BME280;57757;53.198;19.646;2023-05-27T09:35:31;101290.48;;;20.87;34.47
70338;BME280;57757;53.198;19.646;2023-05-27T09:38:08;101291.99;;;21.03;34.40
70338;BME280;57757;53.198;19.646;2023-05-27T09:40:37;101290.77;;;21.21;34.30
70338;BME280;57757;53.198;19.646;2023-05-27T09:43:05;101290.99;;;21.37;34.22
70338;BME280;57757;53.198;19.646;2023-05-27T09:45:33;101296.60;;;21.56;34.08
70338;BME280;57757;53.198;19.646;2023-05-27T09:48:01;101290.56;;;21.73;33.79
70338;BME280;57757;53.198;19.646;2023-05-27T09:50:30;101293.23;;;21.93;33.71
70338;BME280;57757;53.198;19.646;2023-05-27T09:52:58;101291.57;;;22.14;33.68
70338;BME280;57757;53.198;19.646;2023-05-27T09:55:40;101291.27;;;22.42;33.45
70338;BME280;57757;53.198;19.646;2023-05-27T09:58:10;101289.66;;;22.65;33.17
70338;BME280;57757;53.198;19.646;2023-05-27T10:00:41;101281.88;;;22.87;33.13
70338;BME280;57757;53.198;19.646;2023-05-27T10:03:10;101278.52;;;23.14;33.06
70338;BME280;57757;53.198;19.646;2023-05-27T10:05:38;101273.83;;;23.33;32.83
70338;BME280;57757;53.198;19.646;2023-05-27T10:08:06;101276.45;;;23.49;32.46
70338;BME280;57757;53.198;19.646;2023-05-27T10:10:51;101279.23;;;23.62;32.35
70338;BME280;57757;53.198;19.646;2023-05-27T10:13:21;101277.23;;;23.74;32.10
70338;BME280;57757;53.198;19.646;2023-05-27T10:15:51;101280.38;;;23.95;31.92
70338;BME280;57757;53.198;19.646;2023-05-27T10:18:29;101276.88;;;24.17;31.85
70338;BME280;57757;53.198;19.646;2023-05-27T10:20:58;101277.84;;;24.39;31.81
70338;BME280;57757;53.198;19.646;2023-05-27T10:23:28;101274.44;;;24.61;31.73
70338;BME280;57757;53.198;19.646;2023-05-27T10:26:06;101277.47;;;24.88;31.57
70338;BME280;57757;53.198;19.646;2023-05-27T10:28:38;101275.20;;;25.09;31.32
70338;BME280;57757;53.198;19.646;2023-05-27T10:31:14;101267.45;;;25.29;31.12
70338;BME280;57757;53.198;19.646;2023-05-27T10:33:45;101263.48;;;25.55;30.92
70338;BME280;57757;53.198;19.646;2023-05-27T10:36:16;101263.73;;;25.80;30.80
70338;BME280;57757;53.198;19.646;2023-05-27T10:38:55;101270.27;;;26.03;30.61
70338;BME280;57757;53.198;19.646;2023-05-27T10:41:24;101266.19;;;26.36;30.49
70338;BME280;57757;53.198;19.646;2023-05-27T10:43:59;101267.44;;;26.58;30.16
70338;BME280;57757;53.198;19.646;2023-05-27T10:46:40;101268.83;;;26.66;29.89
70338;BME280;57757;53.198;19.646;2023-05-27T10:49:32;101264.27;;;26.86;29.76
70338;BME280;57757;53.198;19.646;2023-05-27T10:52:09;101251.07;;;27.14;29.44
70338;BME280;57757;53.198;19.646;2023-05-27T10:54:43;101249.19;;;27.32;29.14
70338;BME280;57757;53.198;19.646;2023-05-27T10:57:14;101252.53;;;27.33;29.04
70338;BME280;57757;53.198;19.646;2023-05-27T10:59:49;101249.57;;;27.36;28.91
70338;BME280;57757;53.198;19.646;2023-05-27T11:02:22;101250.27;;;27.51;28.67
70338;BME280;57757;53.198;19.646;2023-05-27T11:04:50;101257.46;;;27.57;28.53
70338;BME280;57757;53.198;19.646;2023-05-27T11:07:21;101264.39;;;27.71;28.58
70338;BME280;57757;53.198;19.646;2023-05-27T11:09:53;101260.52;;;28.00;28.55
70338;BME280;57757;53.198;19.646;2023-05-27T11:12:24;101253.66;;;28.34;28.35
70338;BME280;57757;53.198;19.646;2023-05-27T11:14:54;101250.30;;;28.53;27.89
70338;BME280;57757;53.198;19.646;2023-05-27T11:17:23;101246.14;;;28.89;27.90
70338;BME280;57757;53.198;19.646;2023-05-27T11:19:51;101248.66;;;29.10;27.70
70338;BME280;57757;53.198;19.646;2023-05-27T11:22:19;101244.29;;;29.23;27.43
70338;BME280;57757;53.198;19.646;2023-05-27T11:25:03;101250.15;;;29.32;27.25
70338;BME280;57757;53.198;19.646;2023-05-27T11:27:35;101240.69;;;29.48;27.16
70338;BME280;57757;53.198;19.646;2023-05-27T11:30:11;101240.08;;;29.76;27.08
70338;BME280;57757;53.198;19.646;2023-05-27T11:32:41;101244.27;;;30.00;26.91
70338;BME280;57757;53.198;19.646;2023-05-27T11:35:16;101239.66;;;30.33;26.64
70338;BME280;57757;53.198;19.646;2023-05-27T11:37:51;101230.05;;;30.62;26.47
70338;BME280;57757;53.198;19.646;2023-05-27T11:40:20;101223.20;;;31.03;26.17
70338;BME280;57757;53.198;19.646;2023-05-27T11:42:48;101224.10;;;31.32;25.97
70338;BME280;57757;53.198;19.646;2023-05-27T11:45:20;101228.95;;;31.45;25.83
70338;BME280;57757;53.198;19.646;2023-05-27T11:47:49;101218.90;;;31.81;25.64
70338;BME280;57757;53.198;19.646;2023-05-27T11:50:21;101218.48;;;32.04;25.39
70338;BME280;57757;53.198;19.646;2023-05-27T11:52:56;101214.51;;;32.26;25.17
70338;BME280;57757;53.198;19.646;2023-05-27T11:55:24;101208.41;;;32.47;25.20
70338;BME280;57757;53.198;19.646;2023-05-27T11:57:52;101208.05;;;32.65;24.85
70338;BME280;57757;53.198;19.646;2023-05-27T12:00:20;101208.14;;;32.80;24.61
70338;BME280;57757;53.198;19.646;2023-05-27T12:02:47;101209.98;;;33.01;24.59
70338;BME280;57757;53.198;19.646;2023-05-27T12:05:16;101218.26;;;33.26;24.40
70338;BME280;57757;53.198;19.646;2023-05-27T12:08:00;101216.20;;;33.49;24.14
70338;BME280;57757;53.198;19.646;2023-05-27T12:10:27;101216.27;;;33.78;24.06
70338;BME280;57757;53.198;19.646;2023-05-27T12:13:12;101214.40;;;34.05;23.81
70338;BME280;57757;53.198;19.646;2023-05-27T12:15:39;101212.80;;;34.19;23.59
70338;BME280;57757;53.198;19.646;2023-05-27T12:18:07;101210.71;;;34.43;23.45
70338;BME280;57757;53.198;19.646;2023-05-27T12:20:35;101211.73;;;34.66;23.14
70338;BME280;57757;53.198;19.646;2023-05-27T12:23:02;101202.73;;;34.82;23.01
70338;BME280;57757;53.198;19.646;2023-05-27T12:25:31;101199.52;;;35.11;22.95
70338;BME280;57757;53.198;19.646;2023-05-27T12:27:58;101198.26;;;35.34;22.51
70338;BME280;57757;53.198;19.646;2023-05-27T12:30:26;101197.65;;;35.58;22.42
70338;BME280;57757;53.198;19.646;2023-05-27T12:32:53;101197.08;;;35.86;22.22
70338;BME280;57757;53.198;19.646;2023-05-27T12:35:22;101195.86;;;36.20;22.22
70338;BME280;57757;53.198;19.646;2023-05-27T12:37:49;101195.84;;;36.62;22.05
70338;BME280;57757;53.198;19.646;2023-05-27T12:40:19;101197.33;;;36.91;21.61
70338;BME280;57757;53.198;19.646;2023-05-27T12:42:48;101192.12;;;37.10;21.41
70338;BME280;57757;53.198;19.646;2023-05-27T12:45:15;101196.11;;;37.25;21.49
70338;BME280;57757;53.198;19.646;2023-05-27T12:47:43;101188.71;;;37.30;21.06
70338;BME280;57757;53.198;19.646;2023-05-27T12:50:10;101182.11;;;37.43;20.82
70338;BME280;57757;53.198;19.646;2023-05-27T12:52:38;101179.11;;;37.53;20.67
70338;BME280;57757;53.198;19.646;2023-05-27T12:55:07;101179.63;;;37.59;20.44
70338;BME280;57757;53.198;19.646;2023-05-27T12:57:35;101179.51;;;37.75;20.36
70338;BME280;57757;53.198;19.646;2023-05-27T13:00:05;101177.80;;;37.96;20.15
70338;BME280;57757;53.198;19.646;2023-05-27T13:02:33;101181.73;;;38.14;20.10